KCAO/CAO METAR and TAF weather

Enter ICAO airport designator
Station Type Date Time Source
KCAO METAR 2024/04/18 06:55 UTC NOAA

KCAO 180655Z AUTO 27010KT 10SM CLR 14/M07 A2989 RMK AO2 SLP063 T01441067 402670061


Station Type Date Time Source
KCAO Decoded METAR 2024/04/18 06:55 UTC NOAA

CLAYTON MUNICIPAL AIRPARK, NM, United States (KCAO) 36-27N 103-09W 1514M
Apr 18, 2024 - 02:55 AM EDT / 2024.04.18 0655 UTC
Wind: from the W (270 degrees) at 12 MPH (10 KT):0
Visibility: 10 mile(s):0
Sky conditions: clear
Temperature: 57.9 F (14.4 C)
Dew Point: 19.9 F (-6.7 C)
Relative Humidity: 22%
Pressure (altimeter): 29.89 in. Hg (1012 hPa)
ob: KCAO 180655Z AUTO 27010KT 10SM CLR 14/M07 A2989 RMK AO2 SLP063 T01441067 402670061
cycle: 7

Station Type Date Time Source
KCAO TAF UTC NOAA

Error!

Example: see airport list